Aérodrome :
LOGIN :

S'inscrire | Disclaimer

   EN    FR    IT 

 










Légende :    VFR   VFR Marginal   IFR   IFR Intensif   IFR Très Intensif
Visi : 
Plafond : 
>= 8 km
>= 3000ft
5 à 8 km
1000 à 3000 ft
1500m à 5 km
500 à 1000 ft
800 à 1500m
200 à 500 ft
< 800m
< 200 ft
Symboles :   Orages  Brouillard  Fortes neiges  Fortes précipitations  Vent > 20 kt
SIGMETs :   Divers  Orages  Givrage  Turbulence  Onde Orograph.  Cendres Volcan.







- Altitude de l'aérodrome : 2945 ft
- Code IATA : RGS


LEBG - Burgos

DERNIER METAR :
  • 170500Z AUTO VRB02KT 4100 BR OVC002/// 02/02 Q1017

METARs EXPIRÉS :
  • 170430Z AUTO 33004KT 4400 BR OVC002/// 02/02 Q1017
  • 170400Z AUTO 31005KT 2700 -UP BR OVC002/// 02/02 Q1017
  • 170330Z AUTO 32004KT 280V350 2500 -UP BR OVC003/// 03/02 Q1017
  • 170300Z AUTO 31003KT 280V340 4000 BR OVC005/// 03/02 Q1017
  • 170230Z AUTO 22003KT 4700 BR OVC006/// 03/03 Q1017

TAF TAF LEBG
Valide du 17 à 03h jusqu'au 17 à 12h UTC


170200Z 1703/1712 VRB04KT 9999 BKN014 OVC030
PROB40
TEMPO 1703/1711 2500 BR BKN006
PROB40
TEMPO 1703/1710 1500 BCFG BKN003
BECMG 1708/1710 02010KT
Pas de NOTAMs connus pour ce terrain.



MET'MAP, la Météo Aéronautique d'un coup d'oeil ! - Copyright ORBIFLY Décembre 2007 - Disclaimer

ORBIFLY MET'MAP TEAM :

Programmation & Développement : Alexandra Zaïnal
Conception & Développement : Baudouin d'Aumeries
Co-Programmation & Développement : Marc-Olivier Méhu
Soutien technique & logistique : Manuel Goepfert

Contact : metmap@orbifly.com




SOURCES & CREDITS :

   NOAA